Kaministiqua — CFN4612 — position and weather

sailwx.info

Track history (hours):
 
Tides and Currents Weather Stations Pressure Air Temp Water Temp Dewpoint Dewpoint Depression Visibility Wind Speed Wind Dir Waves Ship Positions

Kaministiqua

Last reported at 2014-Jul-20 11:12 UTC. Time now 2014-Jul-26 09:11 UTC.
Position N 47°03' W 085°29'.

Length 223 m; draft 7.1 m.

Type: Cargo ship. MMSI: 316009457.

Date/timePositionNaut miles runAvg speedWind from/ knotsBaromVisibWave heightAir tempDewpointWater temp
2014-Jul-20 11:12N 47°03' W 085°29'1412.6
2014-Jul-20 10:04N 46°55' W 085°11'612.6
2014-Jul-20 09:33N 46°52' W 085°03'1212.4
2014-Jul-20 08:33N 46°44' W 084°50'1312.8
2014-Jul-20 07:34N 46°33' W 084°40'10 9.6
2014-Jul-20 06:34N 46°28' W 084°28'20 4.8
2014-Jul-20 02:24N 46°15' W 084°06'8 8.8
2014-Jul-20 01:32N 46°08' W 084°01'1010.6
2014-Jul-20 00:33N 45°59' W 083°53'1212.1
2014-Jul-19 23:34N 45°49' W 083°46'256 6.7
2014-Jul-18 09:23N 42°34' W 079°54'169 6.4
2014-Jul-17 07:10N 43°59' W 076°34'712.0
2014-Jul-17 06:33N 44°04' W 076°26'1111.0
2014-Jul-17 05:33N 44°12' W 076°15'99 7.4
2014-Jul-16 16:20N 45°09' W 074°22'810.6
2014-Jul-16 15:34N 45°14' W 074°13'8 8.0
2014-Jul-16 14:33N 45°14' W 074°02'6 6.4
2014-Jul-16 13:34N 45°18' W 073°56'1 0.9
2014-Jul-16 12:33N 45°19' W 073°55'4 4.0
2014-Jul-16 11:34N 45°21' W 073°51'8 8.3
2014-Jul-16 10:33N 45°25' W 073°40'4 4.1
2014-Jul-16 09:34N 45°24' W 073°34'3 3.1
2014-Jul-16 08:34N 45°26' W 073°30'4 3.7
2014-Jul-16 07:33N 45°30' W 073°31'3 3.2
2014-Jul-16 06:34N 45°33' W 073°32'3 3.5
2014-Jul-16 05:34N 45°36' W 073°30'9 9.0
2014-Jul-16 04:34N 45°44' W 073°25'1010.0
2014-Jul-16 03:33N 45°52' W 073°16'12 1.1
2014-Jul-15 16:04N 46°03' W 073°07'0 0.0
2014-Jul-15 15:11N 46°03' W 073°07'0 0.0
2014-Jul-15 13:03N 46°03' W 073°07'0 0.0
2014-Jul-15 12:34N 46°03' W 073°07'0 0.0
2014-Jul-15 10:33N 46°03' W 073°07'0 0.0
2014-Jul-15 09:33N 46°03' W 073°07'0 0.0
2014-Jul-15 07:31N 46°03' W 073°07'8 0.2
2014-Jul-13 13:33N 45°56' W 073°13'1312.8
2014-Jul-13 12:33N 45°46' W 073°23'1111.1
2014-Jul-13 11:33N 45°36' W 073°30'6 6.2
2014-Jul-13 10:33N 45°30' W 073°31'1 1.2
2014-Jul-13 09:33N 45°28' W 073°30'5 4.6
2014-Jul-13 08:33N 45°24' W 073°34'1 1.2
2014-Jul-13 07:33N 45°24' W 073°35'6 5.5
2014-Jul-13 06:33N 45°24' W 073°43'10 9.9
2014-Jul-13 05:33N 45°19' W 073°55'1 1.0
2014-Jul-13 04:33N 45°18' W 073°56'0 0.3
2014-Jul-13 03:33N 45°18' W 073°56'4 3.7
2014-Jul-13 02:33N 45°15' W 073°59'6 5.4
2014-Jul-13 01:31N 45°13' W 074°07'8 8.0
2014-Jul-13 00:33N 45°13' W 074°17'94 7.6
2014-Jul-12 12:09N 44°16' W 076°03'610.6
2014-Jul-12 11:33N 44°13' W 076°11'1111.4
2014-Jul-12 10:33N 44°06' W 076°23'1212.3
2014-Jul-12 09:33N 43°56' W 076°33'1311.7
2014-Jul-12 08:25N 43°50' W 076°49'159 5.9
2014-Jul-11 05:33N 42°29' W 079°57'  
Track history (hours):
 
Tides and Currents Weather Stations Pressure Air Temp Water Temp Dewpoint Dewpoint Depression Visibility Wind Speed Wind Dir Waves Ship Positions

Kaministiqua

Last reported at 2014-Jul-20 11:12 UTC. Time now 2014-Jul-26 09:11 UTC.
Position N 47°03' W 085°29'.

Length 223 m; draft 7.1 m.

Type: Cargo ship. MMSI: 316009457.

Date/timePositionNaut miles runAvg speedWind from/ knotsBaromVisibWave heightAir tempDewpointWater temp
2014-Jul-20 11:12N 47°03' W 085°29'1412.6
2014-Jul-20 10:04N 46°55' W 085°11'612.6
2014-Jul-20 09:33N 46°52' W 085°03'1212.4
2014-Jul-20 08:33N 46°44' W 084°50'1312.8
2014-Jul-20 07:34N 46°33' W 084°40'10 9.6
2014-Jul-20 06:34N 46°28' W 084°28'20 4.8
2014-Jul-20 02:24N 46°15' W 084°06'8 8.8
2014-Jul-20 01:32N 46°08' W 084°01'1010.6
2014-Jul-20 00:33N 45°59' W 083°53'1212.1
2014-Jul-19 23:34N 45°49' W 083°46'256 6.7
2014-Jul-18 09:23N 42°34' W 079°54'169 6.4
2014-Jul-17 07:10N 43°59' W 076°34'712.0
2014-Jul-17 06:33N 44°04' W 076°26'1111.0
2014-Jul-17 05:33N 44°12' W 076°15'99 7.4
2014-Jul-16 16:20N 45°09' W 074°22'810.6
2014-Jul-16 15:34N 45°14' W 074°13'8 8.0
2014-Jul-16 14:33N 45°14' W 074°02'6 6.4
2014-Jul-16 13:34N 45°18' W 073°56'1 0.9
2014-Jul-16 12:33N 45°19' W 073°55'4 4.0
2014-Jul-16 11:34N 45°21' W 073°51'8 8.3
2014-Jul-16 10:33N 45°25' W 073°40'4 4.1
2014-Jul-16 09:34N 45°24' W 073°34'3 3.1
2014-Jul-16 08:34N 45°26' W 073°30'4 3.7
2014-Jul-16 07:33N 45°30' W 073°31'3 3.2
2014-Jul-16 06:34N 45°33' W 073°32'3 3.5
2014-Jul-16 05:34N 45°36' W 073°30'9 9.0
2014-Jul-16 04:34N 45°44' W 073°25'1010.0
2014-Jul-16 03:33N 45°52' W 073°16'12 1.1
2014-Jul-15 16:04N 46°03' W 073°07'0 0.0
2014-Jul-15 15:11N 46°03' W 073°07'0 0.0
2014-Jul-15 13:03N 46°03' W 073°07'0 0.0
2014-Jul-15 12:34N 46°03' W 073°07'0 0.0
2014-Jul-15 10:33N 46°03' W 073°07'0 0.0
2014-Jul-15 09:33N 46°03' W 073°07'0 0.0
2014-Jul-15 07:31N 46°03' W 073°07'8 0.2
2014-Jul-13 13:33N 45°56' W 073°13'1312.8
2014-Jul-13 12:33N 45°46' W 073°23'1111.1
2014-Jul-13 11:33N 45°36' W 073°30'6 6.2
2014-Jul-13 10:33N 45°30' W 073°31'1 1.2
2014-Jul-13 09:33N 45°28' W 073°30'5 4.6
2014-Jul-13 08:33N 45°24' W 073°34'1 1.2
2014-Jul-13 07:33N 45°24' W 073°35'6 5.5
2014-Jul-13 06:33N 45°24' W 073°43'10 9.9
2014-Jul-13 05:33N 45°19' W 073°55'1 1.0
2014-Jul-13 04:33N 45°18' W 073°56'0 0.3
2014-Jul-13 03:33N 45°18' W 073°56'4 3.7
2014-Jul-13 02:33N 45°15' W 073°59'6 5.4
2014-Jul-13 01:31N 45°13' W 074°07'8 8.0
2014-Jul-13 00:33N 45°13' W 074°17'94 7.6
2014-Jul-12 12:09N 44°16' W 076°03'610.6
2014-Jul-12 11:33N 44°13' W 076°11'1111.4
2014-Jul-12 10:33N 44°06' W 076°23'1212.3
2014-Jul-12 09:33N 43°56' W 076°33'1311.7
2014-Jul-12 08:25N 43°50' W 076°49'159 5.9
2014-Jul-11 05:33N 42°29' W 079°57'  

Dump ship's entire track history